createdAt,value
2023-02-13T00:00:25.446Z,82.43
2023-02-13T00:02:52.094Z,82.25
2023-02-13T00:05:18.796Z,82.05
2023-02-13T00:07:45.426Z,81.47
2023-02-13T00:10:12.552Z,81.92
2023-02-13T00:12:39.269Z,82.06
2023-02-13T00:15:06.746Z,81.89
2023-02-13T00:17:33.461Z,82.01
2023-02-13T00:20:00.237Z,81.70
2023-02-13T00:22:27.019Z,82.09
2023-02-13T00:24:53.821Z,82.00
2023-02-13T00:27:20.556Z,81.96
2023-02-13T00:29:47.268Z,81.21
2023-02-13T00:32:15.121Z,81.33
2023-02-13T00:34:42.438Z,81.96
2023-02-13T00:37:09.031Z,81.65
2023-02-13T00:39:35.826Z,82.03
2023-02-13T00:42:02.538Z,81.35
2023-02-13T00:44:29.239Z,81.77
2023-02-13T00:46:55.811Z,81.39
2023-02-13T00:49:23.859Z,81.12
2023-02-13T00:51:50.540Z,81.21
2023-02-13T00:54:17.656Z,81.53
2023-02-13T00:56:44.492Z,81.97
2023-02-13T00:59:13.321Z,82.33
2023-02-13T01:01:39.989Z,82.30
2023-02-13T01:04:06.876Z,82.84
2023-02-13T01:06:33.435Z,82.80
2023-02-13T01:09:00.188Z,83.17
2023-02-13T01:11:26.896Z,83.54
2023-02-13T01:13:55.196Z,83.62
2023-02-13T01:16:21.898Z,83.00
2023-02-13T01:18:48.678Z,82.09
2023-02-13T01:21:21.516Z,83.07
2023-02-13T01:23:48.425Z,82.53
2023-02-13T01:26:33.394Z,82.34
2023-02-13T01:29:00.145Z,81.40
2023-02-13T01:31:27.444Z,81.66
2023-02-13T01:33:57.191Z,81.44
2023-02-13T01:36:24.359Z,81.76
2023-02-13T01:38:56.379Z,81.46
2023-02-13T01:41:25.280Z,81.56
2023-02-13T01:43:55.188Z,81.18
2023-02-13T01:46:31.694Z,80.66
2023-02-13T01:49:07.693Z,80.45
2023-02-13T01:51:36.351Z,80.34
2023-02-13T01:54:13.154Z,80.69
2023-02-13T01:56:51.793Z,80.40
2023-02-13T01:59:28.927Z,81.91
2023-02-13T02:01:57.051Z,82.67
2023-02-13T02:04:32.090Z,83.33
2023-02-13T02:07:04.602Z,83.42
2023-02-13T02:09:38.790Z,82.91
2023-02-13T02:12:26.264Z,82.16
2023-02-13T02:14:55.708Z,81.75
2023-02-13T02:17:26.080Z,83.06
2023-02-13T02:20:23.579Z,82.81
2023-02-13T02:22:58.287Z,82.02
2023-02-13T02:25:40.123Z,82.44
2023-02-13T02:28:29.806Z,81.94
2023-02-13T02:31:53.716Z,84.03
2023-02-13T02:34:47.931Z,86.33
2023-02-13T02:37:56.698Z,87.50
2023-02-13T02:40:46.293Z,87.42
2023-02-13T02:43:21.955Z,87.93
2023-02-13T02:46:17.164Z,87.10
2023-02-13T02:49:02.339Z,88.02
2023-02-13T02:52:00.959Z,88.02
2023-02-13T02:54:37.762Z,88.88
2023-02-13T02:57:14.653Z,88.82
2023-02-13T02:59:44.293Z,88.40
2023-02-13T03:02:13.248Z,87.61
2023-02-13T03:04:47.511Z,86.77
2023-02-13T03:07:17.874Z,86.25
2023-02-13T03:09:48.952Z,86.19
2023-02-13T03:12:21.496Z,86.34
2023-02-13T03:14:48.446Z,87.06
2023-02-13T03:17:16.977Z,87.56
2023-02-13T03:19:55.286Z,87.61
2023-02-13T03:22:21.969Z,86.78
2023-02-13T03:25:06.996Z,86.86
2023-02-13T03:27:42.895Z,86.71
2023-02-13T03:30:25.216Z,85.71
2023-02-13T03:33:13.359Z,86.73
2023-02-13T03:35:48.964Z,86.82
2023-02-13T03:38:23.360Z,86.76
2023-02-13T03:41:05.330Z,88.03
2023-02-13T03:43:42.567Z,89.41
2023-02-13T03:46:10.623Z,90.84
2023-02-13T03:48:40.371Z,91.61
2023-02-13T03:51:10.366Z,90.96
2023-02-13T03:53:40.336Z,92.16
2023-02-13T03:56:09.618Z,93.12
2023-02-13T03:58:42.373Z,92.81
2023-02-13T04:01:12.147Z,92.23
2023-02-13T04:03:52.566Z,91.88
2023-02-13T04:06:23.947Z,90.50
2023-02-13T04:08:50.638Z,89.55
2023-02-13T04:11:26.072Z,89.12
2023-02-13T04:16:57.863Z,89.79
2023-02-13T04:22:12.302Z,88.88
2023-02-13T04:24:38.979Z,88.54
2023-02-13T04:27:05.663Z,88.67
2023-02-13T04:29:32.347Z,87.83
2023-02-13T04:31:59.073Z,88.53
2023-02-13T04:34:25.735Z,87.93
2023-02-13T04:36:52.517Z,88.54
2023-02-13T04:39:19.303Z,88.29
2023-02-13T04:41:45.943Z,88.19
2023-02-13T04:44:12.664Z,87.25
2023-02-13T04:46:39.369Z,87.96
2023-02-13T04:49:05.976Z,87.88
2023-02-13T04:51:32.833Z,87.64
2023-02-13T04:53:59.454Z,87.58
2023-02-13T04:56:26.125Z,86.53
2023-02-13T04:58:52.904Z,86.80
2023-02-13T05:01:19.634Z,86.64
2023-02-13T05:03:46.298Z,85.56
2023-02-13T05:06:13.266Z,85.96
2023-02-13T05:08:40.420Z,84.76
2023-02-13T05:11:07.519Z,85.01
2023-02-13T05:13:34.920Z,84.11
2023-02-13T05:16:01.786Z,84.57
2023-02-13T05:18:28.715Z,84.05
2023-02-13T05:20:56.646Z,84.19
2023-02-13T05:23:23.357Z,84.76
2023-02-13T05:25:50.587Z,84.74
2023-02-13T05:28:18.094Z,84.56
2023-02-13T05:30:47.013Z,84.57
2023-02-13T05:33:13.748Z,84.29
2023-02-13T05:35:40.519Z,83.96
2023-02-13T05:38:07.260Z,83.46
2023-02-13T05:40:34.013Z,83.43
2023-02-13T05:43:00.677Z,83.24
2023-02-13T05:45:27.468Z,82.73
2023-02-13T05:47:54.438Z,82.17
2023-02-13T05:50:21.254Z,82.85
2023-02-13T05:52:47.821Z,82.88
2023-02-13T05:55:14.827Z,83.25
2023-02-13T05:57:41.563Z,83.09
2023-02-13T06:00:08.670Z,83.61
2023-02-13T06:02:35.414Z,83.74
2023-02-13T06:05:02.215Z,82.89
2023-02-13T06:07:28.910Z,83.85
2023-02-13T06:09:56.293Z,84.06
2023-02-13T06:12:23.455Z,83.57
2023-02-13T06:14:50.209Z,83.29
2023-02-13T06:17:16.948Z,84.13
2023-02-13T06:19:44.009Z,83.81
2023-02-13T06:22:10.664Z,83.64
2023-02-13T06:24:37.500Z,83.80
2023-02-13T06:27:04.247Z,83.21
2023-02-13T06:29:31.267Z,82.25
2023-02-13T06:31:58.097Z,83.22
2023-02-13T06:34:25.040Z,82.75
2023-02-13T06:36:53.036Z,82.45
2023-02-13T06:39:19.932Z,82.91
2023-02-13T06:41:46.689Z,82.25
2023-02-13T06:44:13.349Z,82.93
2023-02-13T06:46:40.206Z,82.67
2023-02-13T06:49:06.923Z,82.70
2023-02-13T06:51:33.516Z,83.31
2023-02-13T06:54:41.075Z,83.15
2023-02-13T06:57:12.338Z,82.68
2023-02-13T06:59:39.074Z,82.24
2023-02-13T07:02:06.737Z,82.12
2023-02-13T07:04:33.794Z,82.55
2023-02-13T07:07:01.706Z,81.97
2023-02-13T07:09:28.713Z,83.52
2023-02-13T07:11:55.359Z,83.66
2023-02-13T07:14:22.254Z,84.48
2023-02-13T07:16:49.123Z,84.40
2023-02-13T07:19:16.028Z,84.77
2023-02-13T07:21:43.153Z,84.22
2023-02-13T07:24:10.126Z,83.45
2023-02-13T07:26:36.856Z,83.39
2023-02-13T07:29:11.176Z,83.18
2023-02-13T07:31:51.952Z,82.89
2023-02-13T07:34:25.918Z,82.52
2023-02-13T07:36:52.889Z,82.21
2023-02-13T07:39:21.925Z,82.25
2023-02-13T07:41:51.328Z,82.22
2023-02-13T07:44:18.390Z,82.26
2023-02-13T07:46:45.372Z,82.04
2023-02-13T07:49:12.038Z,83.07
2023-02-13T07:51:38.687Z,83.29
2023-02-13T07:54:05.370Z,83.31
2023-02-13T07:56:32.144Z,84.50
2023-02-13T07:58:59.049Z,83.88
2023-02-13T08:01:25.801Z,83.43
2023-02-13T08:03:52.601Z,82.76
2023-02-13T08:06:20.724Z,82.44
2023-02-13T08:08:47.345Z,82.38
2023-02-13T08:11:43.409Z,82.76
2023-02-13T08:14:10.119Z,82.93
2023-02-13T08:16:36.770Z,83.85
2023-02-13T08:19:03.578Z,82.98
2023-02-13T08:21:30.753Z,82.94
2023-02-13T08:23:57.553Z,83.06
2023-02-13T08:26:24.518Z,83.26
2023-02-13T08:28:51.325Z,82.79
2023-02-13T08:31:18.056Z,82.47
2023-02-13T08:33:44.930Z,82.70
2023-02-13T08:36:11.599Z,82.97
2023-02-13T08:41:05.225Z,82.76
2023-02-13T08:43:31.899Z,82.86
2023-02-13T08:46:00.321Z,83.15
2023-02-13T08:48:27.619Z,82.80
2023-02-13T08:50:54.215Z,82.51
2023-02-13T08:53:25.118Z,81.29
2023-02-13T08:55:57.883Z,82.54
2023-02-13T08:58:25.146Z,84.93
2023-02-13T09:00:52.055Z,84.57
2023-02-13T09:03:21.008Z,84.11
2023-02-13T09:05:47.731Z,83.56
2023-02-13T09:08:16.246Z,83.54
2023-02-13T09:10:43.949Z,83.76
2023-02-13T09:13:11.094Z,84.27
2023-02-13T09:15:41.142Z,83.44
2023-02-13T09:18:08.077Z,83.33
2023-02-13T09:20:36.005Z,83.01
2023-02-13T09:23:02.894Z,82.37
2023-02-13T09:25:29.611Z,81.83
2023-02-13T09:27:56.436Z,81.61
2023-02-13T09:30:23.102Z,81.54
2023-02-13T09:32:54.776Z,81.69
2023-02-13T09:35:22.755Z,83.03
2023-02-13T09:37:49.382Z,82.63
2023-02-13T09:40:28.029Z,83.83
2023-02-13T09:43:05.602Z,82.27
2023-02-13T09:45:33.025Z,80.33
2023-02-13T09:47:59.909Z,80.70
2023-02-13T09:50:31.060Z,79.29
2023-02-13T09:52:59.556Z,77.91
2023-02-13T09:55:49.944Z,76.16
2023-02-13T09:58:34.987Z,75.55
2023-02-13T10:01:06.516Z,76.07
2023-02-13T10:03:45.619Z,75.32
2023-02-13T10:06:28.426Z,75.59
2023-02-13T10:09:20.783Z,77.34
2023-02-13T10:12:23.273Z,77.53
2023-02-13T10:15:14.831Z,77.08
2023-02-13T10:17:47.902Z,76.53
2023-02-13T10:20:39.656Z,75.21
2023-02-13T10:23:16.486Z,76.07
2023-02-13T10:25:53.599Z,75.45
2023-02-13T10:28:44.305Z,73.45
2023-02-13T10:31:23.038Z,73.02
2023-02-13T10:34:02.263Z,71.19
2023-02-13T10:36:34.124Z,72.57
2023-02-13T10:39:02.990Z,74.59
2023-02-13T10:41:35.548Z,73.92
2023-02-13T10:44:08.414Z,73.04
2023-02-13T10:46:55.921Z,72.19
2023-02-13T10:49:39.862Z,73.37
2023-02-13T10:52:25.752Z,72.67
2023-02-13T10:55:18.228Z,72.28
2023-02-13T10:58:07.015Z,72.72
2023-02-13T11:00:55.179Z,71.54
2023-02-13T11:03:23.267Z,70.75
2023-02-13T11:05:51.757Z,69.58
2023-02-13T11:08:34.657Z,70.39
2023-02-13T11:11:01.436Z,69.55
2023-02-13T11:13:30.365Z,71.43
2023-02-13T11:16:09.863Z,71.23
2023-02-13T11:18:39.420Z,69.83
2023-02-13T11:21:31.791Z,69.10
2023-02-13T11:24:26.622Z,68.49
2023-02-13T11:27:01.833Z,69.07
2023-02-13T11:29:32.161Z,69.02
2023-02-13T11:32:14.159Z,70.28
2023-02-13T11:34:43.106Z,69.42
2023-02-13T11:37:12.818Z,68.64
2023-02-13T11:39:43.459Z,67.82
2023-02-13T11:42:34.636Z,69.40
2023-02-13T11:45:20.714Z,69.88
2023-02-13T11:47:47.734Z,69.48
2023-02-13T11:50:33.578Z,68.99
2023-02-13T11:53:08.380Z,67.81
2023-02-13T11:55:37.737Z,67.45
2023-02-13T11:58:21.706Z,67.46
2023-02-13T12:00:48.649Z,68.13
2023-02-13T12:03:21.531Z,66.61
2023-02-13T12:06:07.385Z,66.67
2023-02-13T12:08:38.680Z,67.43
2023-02-13T12:11:25.220Z,66.35
2023-02-13T12:13:52.141Z,67.10
2023-02-13T12:16:54.468Z,66.79
2023-02-13T12:19:40.607Z,66.21
2023-02-13T12:22:41.879Z,65.74
2023-02-13T12:25:20.197Z,66.50
2023-02-13T12:27:58.478Z,66.39
2023-02-13T12:30:56.387Z,65.14
2023-02-13T12:33:34.271Z,65.08
2023-02-13T12:36:26.967Z,64.78
2023-02-13T12:39:22.978Z,64.85
2023-02-13T12:42:12.156Z,66.15
2023-02-13T12:45:16.338Z,65.98
2023-02-13T12:47:54.966Z,64.20
2023-02-13T12:50:46.778Z,64.85
2023-02-13T12:53:50.862Z,63.78
2023-02-13T12:56:48.525Z,65.46
2023-02-13T12:59:30.422Z,64.79
2023-02-13T13:02:18.668Z,63.43
2023-02-13T13:05:04.249Z,64.11
2023-02-13T13:07:43.222Z,64.26
2023-02-13T13:10:12.984Z,62.42
2023-02-13T13:13:06.643Z,62.32
2023-02-13T13:16:18.213Z,63.23
2023-02-13T13:19:26.992Z,63.24
2023-02-13T13:21:58.783Z,62.18
2023-02-13T13:24:42.550Z,63.06
2023-02-13T13:27:32.602Z,63.72
2023-02-13T13:30:04.572Z,62.89
2023-02-13T13:32:33.070Z,63.56
2023-02-13T13:35:08.335Z,62.93
2023-02-13T13:37:50.447Z,62.12
2023-02-13T13:40:41.719Z,62.15
2023-02-13T13:43:27.124Z,63.87
2023-02-13T13:46:03.114Z,63.50
2023-02-13T13:49:07.080Z,63.83
2023-02-13T13:51:37.136Z,62.95
2023-02-13T13:54:22.336Z,61.40
2023-02-13T13:56:53.928Z,63.14
2023-02-13T13:59:46.455Z,62.86
2023-02-13T14:02:19.544Z,61.88
2023-02-13T14:05:20.068Z,63.66
2023-02-13T14:07:51.026Z,63.34
2023-02-13T14:10:21.251Z,62.46
2023-02-13T14:12:50.216Z,62.35
2023-02-13T14:15:38.295Z,62.26
2023-02-13T14:18:15.225Z,61.83
2023-02-13T14:20:42.000Z,61.88
2023-02-13T14:23:27.055Z,61.85
2023-02-13T14:26:19.553Z,62.13
2023-02-13T14:28:50.608Z,60.29
2023-02-13T14:31:31.379Z,61.39
2023-02-13T14:34:09.636Z,60.52
2023-02-13T14:36:40.057Z,61.05
2023-02-13T14:39:08.217Z,61.63
2023-02-13T14:41:46.129Z,61.56
2023-02-13T14:44:33.768Z,60.58
2023-02-13T14:47:07.231Z,60.84
2023-02-13T14:49:40.750Z,61.78
2023-02-13T14:52:17.954Z,59.63
2023-02-13T14:55:00.883Z,60.77
2023-02-13T14:57:27.618Z,61.47
2023-02-13T14:59:58.707Z,59.88
2023-02-13T15:02:28.736Z,60.65
2023-02-13T15:05:10.522Z,61.71
2023-02-13T15:07:43.202Z,61.68
2023-02-13T15:10:31.537Z,60.53
2023-02-13T15:13:00.590Z,61.92
2023-02-13T15:15:32.035Z,62.13
2023-02-13T15:18:02.924Z,61.54
2023-02-13T15:20:35.379Z,61.77
2023-02-13T15:23:03.046Z,61.77
2023-02-13T15:25:29.784Z,61.59
2023-02-13T15:27:56.716Z,60.93
2023-02-13T15:30:34.920Z,61.73
2023-02-13T15:33:18.671Z,61.17
2023-02-13T15:35:46.673Z,62.93
2023-02-13T15:38:28.873Z,62.49
2023-02-13T15:41:02.644Z,62.80
2023-02-13T15:43:35.712Z,62.65
2023-02-13T15:46:18.545Z,62.62
2023-02-13T15:48:46.274Z,61.97
2023-02-13T15:51:29.034Z,62.18
2023-02-13T15:54:07.909Z,62.54
2023-02-13T15:56:36.667Z,62.69
2023-02-13T15:59:03.767Z,63.54
2023-02-13T16:01:32.014Z,63.07
2023-02-13T16:04:06.584Z,63.42
2023-02-13T16:06:34.130Z,63.90
2023-02-13T16:11:51.861Z,64.48
2023-02-13T16:14:26.894Z,64.26
2023-02-13T16:16:58.642Z,64.67
2023-02-13T16:19:41.899Z,64.67
2023-02-13T16:22:18.427Z,65.25
2023-02-13T16:24:50.400Z,65.06
2023-02-13T16:27:19.150Z,65.24
2023-02-13T16:30:05.624Z,65.43
2023-02-13T16:32:34.723Z,64.86
2023-02-13T16:35:28.731Z,63.98
2023-02-13T16:37:58.949Z,63.63
2023-02-13T16:43:45.102Z,65.78
2023-02-13T16:46:14.952Z,66.18
2023-02-13T16:48:43.732Z,65.94
2023-02-13T16:51:11.005Z,66.19
2023-02-13T16:53:39.081Z,66.88
2023-02-13T16:56:09.193Z,71.07
2023-02-13T16:58:36.023Z,71.80
2023-02-13T17:01:04.767Z,72.27
2023-02-13T17:03:34.401Z,72.29
2023-02-13T17:06:02.282Z,72.72
2023-02-13T17:08:31.368Z,73.33
2023-02-13T17:11:06.988Z,72.26
2023-02-13T17:13:34.837Z,70.30
2023-02-13T17:16:01.624Z,67.67
2023-02-13T17:18:28.392Z,66.55
2023-02-13T17:20:55.307Z,66.20
2023-02-13T17:23:24.816Z,65.84
2023-02-13T17:25:53.032Z,65.68
2023-02-13T17:28:29.861Z,65.39
2023-02-13T17:30:59.630Z,63.08
2023-02-13T17:33:31.834Z,63.01
2023-02-13T17:35:59.537Z,66.07
2023-02-13T17:38:26.358Z,67.53
2023-02-13T17:40:53.197Z,69.02
2023-02-13T17:43:20.386Z,69.10
2023-02-13T17:45:48.097Z,68.84
2023-02-13T17:48:15.383Z,68.59
2023-02-13T17:50:42.328Z,68.90
2023-02-13T17:53:20.740Z,68.81
2023-02-13T17:55:47.514Z,69.08
2023-02-13T17:58:21.223Z,69.20
2023-02-13T18:00:50.065Z,69.32
2023-02-13T18:03:16.832Z,68.66
2023-02-13T18:05:47.914Z,69.42
2023-02-13T18:12:05.619Z,68.77
2023-02-13T18:15:09.163Z,68.81
2023-02-13T18:24:47.524Z,66.53
2023-02-13T18:31:34.263Z,70.63
2023-02-13T18:34:25.534Z,70.77
2023-02-13T18:37:05.280Z,70.66
2023-02-13T18:47:12.085Z,71.17
2023-02-13T19:04:20.660Z,70.73
2023-02-13T19:06:50.652Z,71.86
2023-02-13T19:09:20.433Z,72.17
2023-02-13T19:11:56.520Z,71.75
2023-02-13T19:17:39.053Z,71.67
2023-02-13T19:20:10.500Z,71.77
2023-02-13T19:22:44.315Z,71.81
2023-02-13T19:25:11.324Z,71.31
2023-02-13T19:27:40.954Z,71.53
2023-02-13T19:30:08.349Z,71.27
2023-02-13T19:32:35.766Z,71.09
2023-02-13T19:35:02.536Z,71.46
2023-02-13T19:37:35.743Z,71.41
2023-02-13T19:40:14.696Z,71.66
2023-02-13T19:42:41.684Z,71.24
2023-02-13T19:45:08.873Z,71.96
2023-02-13T19:47:35.609Z,72.06
2023-02-13T19:50:02.459Z,71.99
2023-02-13T19:52:29.237Z,71.93
2023-02-13T19:54:56.014Z,72.47
2023-02-13T19:57:26.469Z,71.68
2023-02-13T19:59:53.441Z,72.47
2023-02-13T20:02:23.358Z,73.24
2023-02-13T20:04:50.232Z,73.47
2023-02-13T20:07:18.472Z,73.18
2023-02-13T20:09:45.370Z,71.70
2023-02-13T20:12:15.161Z,72.50
2023-02-13T20:14:42.178Z,72.40
2023-02-13T20:17:08.998Z,72.39
2023-02-13T20:19:36.673Z,72.63
2023-02-13T20:22:03.419Z,72.51
2023-02-13T20:24:30.245Z,72.32
2023-02-13T20:26:59.592Z,72.36
2023-02-13T20:29:26.381Z,72.83
2023-02-13T20:32:01.843Z,74.01
2023-02-13T20:34:31.632Z,72.91
2023-02-13T20:37:15.012Z,72.96
2023-02-13T20:39:45.808Z,72.95
2023-02-13T20:42:12.877Z,73.43
2023-02-13T20:44:43.052Z,73.58
2023-02-13T20:47:12.729Z,73.73
2023-02-13T20:49:39.524Z,73.96
2023-02-13T20:54:49.036Z,73.61
2023-02-13T20:57:16.114Z,73.38
2023-02-13T20:59:50.757Z,73.46
2023-02-13T21:06:12.845Z,71.62
2023-02-13T21:08:53.904Z,72.54
2023-02-13T21:11:32.059Z,73.94
2023-02-13T21:17:27.742Z,75.84
2023-02-13T21:23:37.517Z,76.81
2023-02-13T21:26:57.202Z,76.94
2023-02-13T21:40:04.713Z,76.30
2023-02-13T21:43:33.253Z,76.31
2023-02-13T21:46:39.420Z,75.62
2023-02-13T21:49:12.422Z,75.51
2023-02-13T21:54:27.783Z,75.54
2023-02-13T22:01:00.861Z,76.94
2023-02-13T22:03:30.197Z,78.21
2023-02-13T22:05:57.314Z,78.13
2023-02-13T22:11:41.003Z,77.66
2023-02-13T22:14:27.713Z,77.39
2023-02-13T22:17:11.616Z,78.60
2023-02-13T22:19:41.381Z,79.20
2023-02-13T22:22:15.902Z,79.69
2023-02-13T22:25:13.019Z,79.27
2023-02-13T22:28:08.737Z,80.55
2023-02-13T22:31:02.752Z,81.76
2023-02-13T22:34:14.879Z,82.13
2023-02-13T22:37:15.069Z,81.83
2023-02-13T22:40:33.443Z,82.05
2023-02-13T22:48:07.181Z,80.92
2023-02-13T22:51:08.504Z,80.13
2023-02-13T22:57:12.137Z,79.91
2023-02-13T23:02:53.283Z,79.33
2023-02-13T23:05:20.822Z,79.13
2023-02-13T23:07:47.624Z,79.39
2023-02-13T23:10:14.554Z,78.97
2023-02-13T23:12:53.006Z,79.66
2023-02-13T23:15:20.166Z,79.60
2023-02-13T23:17:47.013Z,79.31
2023-02-13T23:20:13.945Z,78.62
2023-02-13T23:22:40.570Z,78.32
2023-02-13T23:25:08.022Z,78.81
2023-02-13T23:27:35.913Z,79.26
2023-02-13T23:30:04.439Z,78.97
2023-02-13T23:32:31.869Z,78.43
2023-02-13T23:34:58.825Z,77.94
2023-02-13T23:37:25.492Z,77.27
2023-02-13T23:39:52.456Z,76.72
2023-02-13T23:42:19.090Z,76.66
2023-02-13T23:44:45.917Z,76.65
2023-02-13T23:47:12.593Z,76.50
2023-02-13T23:49:39.393Z,76.66
2023-02-13T23:52:06.108Z,76.21
2023-02-13T23:54:32.844Z,76.24
2023-02-13T23:57:00.284Z,76.18
2023-02-13T23:59:27.320Z,76.69
